Time;durP1;ratioP1;P1;durP2;ratioP2;P2;SDS_P1;SDS_P2;PMS_P1;PMS_P2;Temp;Humidity;BMP_temperature;BMP_pressure;BME280_temperature;BME280_humidity;BME280_pressure;Samples;Min_cycle;Max_cycle;Signal;HPM_P1;HPM_P2
2021/11/19 00:00:59;;;;;;;10.63;8.85;;;4.40;99.90;;;;;;5037123;28;20507;-73
2021/11/19 00:03:26;;;;;;;15.18;10.73;;;4.40;99.90;;;;;;5035677;28;20060;-71
2021/11/19 00:05:52;;;;;;;15.32;9.45;;;4.40;99.90;;;;;;5036450;28;20022;-72
2021/11/19 00:08:25;;;;;;;15.38;9.52;;;4.30;99.90;;;;;;5034886;28;20056;-71
2021/11/19 00:10:58;;;;;;;12.85;8.75;;;4.30;99.90;;;;;;5036805;28;20029;-72
2021/11/19 00:13:25;;;;;;;12.80;9.95;;;4.30;99.90;;;;;;5035937;28;20018;-71
2021/11/19 00:15:51;;;;;;;15.93;10.20;;;4.20;99.90;;;;;;5033968;28;20041;-74
2021/11/19 00:18:18;;;;;;;14.90;10.52;;;4.20;99.90;;;;;;5034821;28;20249;-72
2021/11/19 00:20:44;;;;;;;12.27;10.30;;;4.20;99.90;;;;;;5034230;28;20604;-72
2021/11/19 00:23:10;;;;;;;14.15;9.63;;;4.20;99.90;;;;;;5034691;28;20113;-72
2021/11/19 00:25:37;;;;;;;14.38;9.75;;;4.10;99.90;;;;;;5034985;28;20148;-72
2021/11/19 00:28:04;;;;;;;15.00;10.65;;;4.10;99.90;;;;;;5034953;28;20021;-72
2021/11/19 00:30:31;;;;;;;14.15;9.23;;;4.10;99.90;;;;;;5034675;28;20033;-73
2021/11/19 00:32:57;;;;;;;12.20;9.85;;;4.10;99.90;;;;;;5038004;28;20021;-72
2021/11/19 00:35:23;;;;;;;12.38;9.30;;;4.10;99.90;;;;;;5037187;28;20105;-71
2021/11/19 00:37:53;;;;;;;13.15;9.88;;;4.10;99.90;;;;;;5035524;28;20044;-73
2021/11/19 00:40:34;;;;;;;14.07;10.18;;;4.10;99.90;;;;;;5033696;28;20109;-72
2021/11/19 00:43:00;;;;;;;17.38;9.68;;;4.00;99.90;;;;;;5034930;28;20056;-73
2021/11/19 00:45:26;;;;;;;14.20;11.43;;;4.00;99.90;;;;;;5034833;28;20060;-72
2021/11/19 00:47:53;;;;;;;15.45;10.48;;;4.00;99.90;;;;;;5033620;28;20028;-72
2021/11/19 00:50:22;;;;;;;14.57;10.57;;;3.90;99.90;;;;;;5032748;28;20108;-72
2021/11/19 00:52:48;;;;;;;16.02;10.30;;;3.90;99.90;;;;;;5033718;28;20099;-71
2021/11/19 00:55:14;;;;;;;12.65;8.93;;;3.90;99.90;;;;;;5034002;28;20478;-71
2021/11/19 00:57:39;;;;;;;12.82;9.52;;;3.90;99.90;;;;;;5033774;28;20017;-72
2021/11/19 01:00:12;;;;;;;13.43;10.98;;;4.00;99.90;;;;;;5032939;28;20021;-72
2021/11/19 01:02:38;;;;;;;11.88;9.02;;;3.90;99.90;;;;;;5034434;28;20500;-72
2021/11/19 01:05:05;;;;;;;15.38;10.07;;;3.90;99.90;;;;;;5033528;28;20068;-72
2021/11/19 01:07:32;;;;;;;13.80;9.73;;;4.00;99.90;;;;;;5031990;28;20366;-72
2021/11/19 01:10:02;;;;;;;17.73;10.77;;;3.90;99.90;;;;;;5037683;28;20477;-72
2021/11/19 01:12:30;;;;;;;12.40;10.23;;;3.90;99.90;;;;;;5048192;28;20493;-73
2021/11/19 01:15:15;;;;;;;14.75;11.95;;;3.90;99.90;;;;;;5046066;28;20025;-73
2021/11/19 01:18:04;;;;;;;18.25;12.57;;;3.80;99.90;;;;;;5037765;28;20033;-72
2021/11/19 01:20:39;;;;;;;15.80;11.68;;;3.80;99.90;;;;;;5033926;28;20033;-73
2021/11/19 01:23:10;;;;;;;15.02;11.13;;;3.80;99.90;;;;;;5034397;28;20093;-70
2021/11/19 01:25:38;;;;;;;17.58;12.45;;;3.70;99.90;;;;;;5036828;28;20380;-72
2021/11/19 01:28:05;;;;;;;16.45;11.27;;;3.70;99.90;;;;;;5034066;28;20022;-71
2021/11/19 01:30:35;;;;;;;16.58;11.30;;;3.70;99.90;;;;;;5032744;28;20029;-73
2021/11/19 01:33:02;;;;;;;12.48;11.23;;;3.70;99.90;;;;;;5033651;28;20397;-72
2021/11/19 01:35:28;;;;;;;18.95;11.23;;;3.70;99.90;;;;;;5032771;28;20029;-73
2021/11/19 01:37:54;;;;;;;17.25;12.20;;;3.70;99.90;;;;;;5033266;28;20025;-71
2021/11/19 01:40:23;;;;;;;19.58;12.02;;;3.70;99.90;;;;;;5032395;28;20307;-72
2021/11/19 01:42:53;;;;;;;19.38;12.43;;;3.60;99.90;;;;;;5032023;28;20029;-71
2021/11/19 01:45:34;;;;;;;20.42;11.65;;;3.60;99.90;;;;;;5033435;28;20017;-73
2021/11/19 01:48:01;;;;;;;20.48;12.30;;;3.60;99.90;;;;;;5041181;28;20044;-71
2021/11/19 01:50:38;;;;;;;17.80;12.38;;;3.60;99.90;;;;;;5039451;28;20032;-73
2021/11/19 01:53:38;;;;;;;11.85;9.98;;;3.60;99.90;;;;;;5041498;28;20026;-72
2021/11/19 01:56:10;;;;;;;13.32;10.65;;;3.60;99.90;;;;;;5041398;28;20371;-72
2021/11/19 01:58:59;;;;;;;13.77;11.57;;;3.60;99.90;;;;;;5041225;28;20045;-73
2021/11/19 02:01:38;;;;;;;14.30;10.68;;;3.60;99.90;;;;;;5040714;28;20022;-73
2021/11/19 02:04:11;;;;;;;16.30;11.85;;;3.60;99.90;;;;;;5036093;28;20036;-73
2021/11/19 02:06:44;;;;;;;16.60;11.75;;;3.60;99.90;;;;;;5038287;28;20473;-72
2021/11/19 02:09:19;;;;;;;15.57;11.27;;;3.50;99.90;;;;;;5035901;28;20293;-72
2021/11/19 02:11:58;;;;;;;15.40;11.30;;;3.50;99.90;;;;;;5036809;28;20388;-72
2021/11/19 02:14:54;;;;;;;16.17;11.30;;;3.40;99.90;;;;;;5037229;28;20032;-72
2021/11/19 02:17:19;;;;;;;20.73;11.10;;;3.40;99.90;;;;;;5036829;28;20076;-73
2021/11/19 02:19:52;;;;;;;18.77;12.50;;;3.40;99.90;;;;;;5036869;28;20088;-72
2021/11/19 02:22:20;;;;;;;15.48;11.45;;;3.40;99.90;;;;;;5035561;28;20044;-72
2021/11/19 02:24:50;;;;;;;17.65;13.32;;;3.40;99.90;;;;;;5036721;28;20104;-72
2021/11/19 02:27:21;;;;;;;15.15;11.75;;;3.40;99.90;;;;;;5036479;28;20024;-72
2021/11/19 02:29:51;;;;;;;15.27;12.27;;;3.30;99.90;;;;;;5036421;28;20017;-73
2021/11/19 02:32:27;;;;;;;15.07;11.80;;;3.30;99.90;;;;;;5036205;28;20077;-73
2021/11/19 02:34:53;;;;;;;17.75;11.73;;;3.30;99.90;;;;;;5036066;28;20481;-72
2021/11/19 02:37:45;;;;;;;18.27;11.45;;;3.30;99.90;;;;;;5036071;28;20098;-72
2021/11/19 02:40:17;;;;;;;16.95;12.82;;;3.30;99.90;;;;;;5035346;28;20061;-72
2021/11/19 02:42:59;;;;;;;14.95;11.68;;;3.30;99.90;;;;;;5036048;28;20026;-72
2021/11/19 02:45:39;;;;;;;15.30;11.80;;;3.40;99.90;;;;;;5036171;28;20029;-72
2021/11/19 02:48:06;;;;;;;15.30;10.18;;;3.30;99.90;;;;;;5035910;28;20474;-73
2021/11/19 02:50:33;;;;;;;17.02;11.75;;;3.20;99.90;;;;;;5034904;28;20498;-72
2021/11/19 02:52:59;;;;;;;20.33;14.32;;;3.20;99.90;;;;;;5035798;28;20036;-72
2021/11/19 02:55:29;;;;;;;19.90;12.10;;;3.20;99.90;;;;;;5035784;28;20096;-72
2021/11/19 02:57:56;;;;;;;18.95;13.75;;;3.20;99.90;;;;;;5056282;28;20022;-72
2021/11/19 03:00:26;;;;;;;20.02;15.98;;;3.20;99.90;;;;;;5056654;28;20045;-73
2021/11/19 03:02:52;;;;;;;17.40;14.05;;;3.20;99.90;;;;;;5053869;28;20017;-74
2021/11/19 03:05:21;;;;;;;19.45;12.88;;;3.10;99.90;;;;;;5042089;28;20440;-72
2021/11/19 03:07:47;;;;;;;20.23;12.70;;;3.10;99.90;;;;;;5038533;28;20500;-73
2021/11/19 03:10:19;;;;;;;14.98;10.75;;;3.10;99.90;;;;;;5035879;28;20037;-72
2021/11/19 03:12:45;;;;;;;16.77;11.18;;;3.10;99.90;;;;;;5035553;28;20079;-71
2021/11/19 03:15:27;;;;;;;15.98;11.40;;;3.10;99.90;;;;;;5035203;28;20109;-72
2021/11/19 03:17:54;;;;;;;12.57;10.40;;;3.00;99.90;;;;;;5034363;28;20419;-73
2021/11/19 03:20:22;;;;;;;16.02;10.23;;;3.00;99.90;;;;;;5034971;28;20544;-72
2021/11/19 03:22:48;;;;;;;15.40;9.93;;;3.10;99.90;;;;;;5035458;28;20602;-72
2021/11/19 03:25:17;;;;;;;13.38;10.00;;;3.10;99.90;;;;;;5035070;28;20037;-72
2021/11/19 03:27:43;;;;;;;13.00;9.20;;;3.10;99.90;;;;;;5035309;28;20408;-73
2021/11/19 03:30:12;;;;;;;11.48;10.20;;;3.20;99.90;;;;;;5035115;28;20114;-72
2021/11/19 03:32:38;;;;;;;16.63;10.23;;;3.20;99.90;;;;;;5033947;28;20036;-73
2021/11/19 03:35:06;;;;;;;12.82;10.63;;;3.20;99.90;;;;;;5034735;28;20481;-72
2021/11/19 03:37:32;;;;;;;13.10;9.75;;;3.20;99.90;;;;;;5042321;28;20026;-72
2021/11/19 03:39:58;;;;;;;15.48;12.25;;;3.20;99.90;;;;;;5035175;28;20041;-72
2021/11/19 03:42:25;;;;;;;14.65;10.77;;;3.10;99.90;;;;;;5035219;28;20512;-72
2021/11/19 03:44:55;;;;;;;11.77;9.45;;;3.10;99.90;;;;;;5034943;28;20167;-72
2021/11/19 03:47:32;;;;;;;17.67;10.10;;;3.10;99.90;;;;;;5033472;28;20021;-72
2021/11/19 03:49:57;;;;;;;14.02;10.18;;;3.10;99.90;;;;;;5033728;28;20045;-72
2021/11/19 03:52:29;;;;;;;11.35;9.82;;;3.10;99.90;;;;;;5034543;28;20029;-72
2021/11/19 03:54:57;;;;;;;14.45;10.18;;;3.10;99.90;;;;;;5034619;28;20029;-72
2021/11/19 03:57:24;;;;;;;16.55;9.52;;;3.10;99.90;;;;;;5034662;28;20033;-71
2021/11/19 03:59:51;;;;;;;14.48;11.25;;;3.10;99.90;;;;;;5035912;28;20093;-71
2021/11/19 04:02:18;;;;;;;12.93;9.73;;;3.10;99.90;;;;;;5045060;28;20116;-72
2021/11/19 04:04:45;;;;;;;14.30;9.57;;;3.10;99.90;;;;;;5040392;28;20120;-71
2021/11/19 04:07:13;;;;;;;10.73;9.60;;;3.10;99.90;;;;;;5034669;28;20029;-71
2021/11/19 04:09:40;;;;;;;12.20;9.73;;;3.10;99.90;;;;;;5057803;22;20064;-76
2021/11/19 04:12:07;;;;;;;14.85;9.75;;;3.00;99.90;;;;;;5041277;28;20022;-76
2021/11/19 04:14:33;;;;;;;15.55;9.43;;;3.00;99.90;;;;;;5044519;28;20033;-75
2021/11/19 04:17:00;;;;;;;15.45;10.05;;;3.00;99.90;;;;;;5039830;28;20025;-78
2021/11/19 04:19:28;;;;;;;14.93;10.73;;;2.90;99.90;;;;;;5036596;28;20030;-79
2021/11/19 04:21:57;;;;;;;14.27;10.93;;;3.00;99.90;;;;;;5038337;28;20032;-78
2021/11/19 04:24:29;;;;;;;12.13;10.02;;;2.90;99.90;;;;;;5042143;28;20029;-77
2021/11/19 04:26:55;;;;;;;13.65;10.02;;;2.90;99.90;;;;;;5043947;28;20052;-75
2021/11/19 04:29:21;;;;;;;12.05;10.10;;;2.90;99.90;;;;;;5043623;28;20029;-76
2021/11/19 04:31:47;;;;;;;11.80;9.88;;;2.90;99.90;;;;;;5042385;28;20124;-77
2021/11/19 04:34:14;;;;;;;17.60;11.02;;;2.90;99.90;;;;;;5039739;28;20068;-76
2021/11/19 04:36:40;;;;;;;13.10;10.63;;;2.90;99.90;;;;;;5045235;28;20101;-76
2021/11/19 04:39:08;;;;;;;15.00;11.85;;;2.90;99.90;;;;;;5045917;28;20060;-76
2021/11/19 04:41:34;;;;;;;14.32;12.25;;;2.90;99.90;;;;;;5046202;28;20072;-76
2021/11/19 04:44:00;;;;;;;17.55;11.63;;;2.90;99.90;;;;;;5044145;28;20022;-75
2021/11/19 04:46:26;;;;;;;19.63;12.63;;;2.90;99.90;;;;;;5046376;28;20021;-76
2021/11/19 04:48:52;;;;;;;13.65;10.15;;;2.90;99.90;;;;;;5047715;28;20036;-76
2021/11/19 04:51:26;;;;;;;14.30;11.25;;;2.80;99.90;;;;;;5047428;28;20030;-76
2021/11/19 04:53:52;;;;;;;13.27;10.38;;;2.90;99.90;;;;;;5047372;28;20036;-76
2021/11/19 04:56:20;;;;;;;12.65;11.35;;;2.90;99.90;;;;;;5047507;28;20033;-75
2021/11/19 04:58:47;;;;;;;20.10;10.93;;;2.90;99.90;;;;;;5043678;28;20030;-75
2021/11/19 05:01:16;;;;;;;14.05;10.43;;;2.90;99.90;;;;;;5040346;28;20045;-76
2021/11/19 05:03:42;;;;;;;13.10;11.18;;;2.90;99.90;;;;;;5042468;28;20472;-77
2021/11/19 05:06:09;;;;;;;15.52;10.38;;;2.80;99.90;;;;;;5045076;28;20029;-77
2021/11/19 05:08:35;;;;;;;12.63;10.80;;;2.80;99.90;;;;;;5045852;28;20075;-76
2021/11/19 05:11:03;;;;;;;14.07;10.65;;;2.80;99.90;;;;;;5048781;28;20037;-76
2021/11/19 05:13:31;;;;;;;12.05;10.93;;;2.80;99.90;;;;;;5048989;28;20075;-75
2021/11/19 05:16:00;;;;;;;17.90;12.05;;;2.80;99.90;;;;;;5045417;28;20103;-76
2021/11/19 05:18:27;;;;;;;14.70;10.85;;;2.80;99.90;;;;;;5044643;28;20083;-77
2021/11/19 05:20:53;;;;;;;14.43;10.50;;;2.80;99.90;;;;;;5035028;28;20037;-76
2021/11/19 05:23:20;;;;;;;15.00;10.73;;;2.80;99.90;;;;;;5032477;28;20075;-77
2021/11/19 05:25:46;;;;;;;15.73;11.23;;;2.90;99.90;;;;;;5033562;28;20027;-76
2021/11/19 05:28:13;;;;;;;15.75;11.40;;;3.00;99.90;;;;;;5034172;28;20112;-76
2021/11/19 05:30:40;;;;;;;14.48;11.27;;;3.00;99.90;;;;;;5033014;28;20028;-77
2021/11/19 05:33:09;;;;;;;16.52;10.98;;;2.90;99.90;;;;;;5033606;28;20040;-76
2021/11/19 05:35:35;;;;;;;19.85;11.60;;;2.80;99.90;;;;;;5033314;28;20113;-77
2021/11/19 05:38:02;;;;;;;18.75;11.55;;;2.80;99.90;;;;;;5042794;28;20022;-77
2021/11/19 05:40:27;;;;;;;16.50;12.48;;;2.80;99.90;;;;;;5050914;28;20025;-76
2021/11/19 05:42:54;;;;;;;27.83;11.70;;;2.80;99.90;;;;;;5053539;28;20061;-76
2021/11/19 05:45:23;;;;;;;20.85;12.13;;;2.80;99.90;;;;;;5055078;28;20075;-76
2021/11/19 05:47:49;;;;;;;18.20;12.45;;;2.80;99.90;;;;;;5055225;28;20026;-77
2021/11/19 05:50:17;;;;;;;15.18;11.82;;;2.80;99.90;;;;;;5056457;28;20030;-77
2021/11/19 05:52:43;;;;;;;14.73;11.68;;;2.80;99.90;;;;;;5054298;28;20048;-76
2021/11/19 05:55:12;;;;;;;19.55;12.00;;;2.80;99.90;;;;;;5051725;28;20025;-77
2021/11/19 05:57:38;;;;;;;18.08;11.25;;;2.80;99.90;;;;;;5049745;28;20073;-76
2021/11/19 06:00:09;;;;;;;13.68;10.57;;;2.80;99.90;;;;;;5042887;28;20075;-77
2021/11/19 06:02:34;;;;;;;;;;;2.90;99.90;;;;;;5043048;28;20025;-76
2021/11/19 06:05:00;;;;;;;16.20;10.93;;;2.90;99.90;;;;;;5037587;28;19919;-78
2021/11/19 06:07:25;;;;;;;20.63;12.13;;;3.10;99.90;;;;;;5035901;28;20473;-77
2021/11/19 06:09:51;;;;;;;16.73;11.57;;;3.10;99.90;;;;;;5041384;28;20033;-76
2021/11/19 06:12:23;;;;;;;16.30;12.52;;;3.10;99.90;;;;;;5038176;28;20469;-77
2021/11/19 06:14:56;;;;;;;17.30;11.23;;;3.20;99.90;;;;;;5035739;28;20030;-77
2021/11/19 06:17:37;;;;;;;14.20;11.20;;;3.30;99.90;;;;;;5033910;28;20037;-77
2021/11/19 06:20:13;;;;;;;16.88;12.77;;;3.30;99.90;;;;;;5033492;28;20040;-76
2021/11/19 06:22:41;;;;;;;20.02;11.18;;;3.40;99.90;;;;;;5037262;28;20039;-77
2021/11/19 06:25:12;;;;;;;17.17;11.35;;;3.40;99.90;;;;;;5034370;28;20029;-77
2021/11/19 06:27:38;;;;;;;16.15;12.85;;;3.50;99.90;;;;;;5038357;28;20075;-78
2021/11/19 06:30:08;;;;;;;14.95;11.55;;;3.50;99.90;;;;;;5040159;28;20025;-76
2021/11/19 06:32:34;;;;;;;16.40;11.75;;;3.50;99.90;;;;;;5038306;28;20388;-77
2021/11/19 06:35:00;;;;;;;16.05;11.77;;;3.50;99.90;;;;;;5034990;28;20546;-77
2021/11/19 06:37:26;;;;;;;15.75;13.07;;;3.60;99.90;;;;;;5036000;28;20045;-78
2021/11/19 06:39:52;;;;;;;18.10;11.65;;;3.60;99.90;;;;;;5033345;28;20040;-78
2021/11/19 06:42:18;;;;;;;16.92;10.52;;;3.60;99.90;;;;;;5035465;28;20025;-77
2021/11/19 06:44:45;;;;;;;18.20;10.95;;;3.70;99.90;;;;;;5032989;28;20049;-76
2021/11/19 06:47:12;;;;;;;14.98;11.00;;;3.70;99.90;;;;;;5033431;28;20030;-77
2021/11/19 06:49:38;;;;;;;15.15;11.00;;;3.70;99.90;;;;;;5033214;28;20025;-77
2021/11/19 06:52:05;;;;;;;15.00;11.45;;;3.70;99.90;;;;;;5039717;28;20473;-76
2021/11/19 06:54:32;;;;;;;19.20;11.57;;;3.80;99.90;;;;;;5036600;28;20040;-78
2021/11/19 06:56:59;;;;;;;34.63;11.85;;;3.90;99.90;;;;;;5037587;28;20388;-76
2021/11/19 06:59:25;;;;;;;16.80;10.88;;;4.00;99.90;;;;;;5039433;28;20071;-77
2021/11/19 07:01:50;;;;;;;17.00;10.18;;;4.10;99.90;;;;;;5036813;28;20116;-78
2021/11/19 07:04:16;;;;;;;12.38;9.95;;;4.20;99.90;;;;;;5038674;28;20053;-77
2021/11/19 07:06:42;;;;;;;14.95;9.90;;;4.30;99.90;;;;;;5038210;28;20096;-77
2021/11/19 07:09:11;;;;;;;18.10;10.25;;;4.20;99.90;;;;;;5037921;28;20022;-76
2021/11/19 07:11:36;;;;;;;16.48;10.43;;;4.30;99.90;;;;;;5038480;28;20020;-76
2021/11/19 07:14:02;;;;;;;18.25;10.48;;;4.30;99.90;;;;;;5039425;28;20057;-77
2021/11/19 07:16:30;;;;;;;15.07;10.73;;;4.30;99.90;;;;;;5041057;28;20041;-77
2021/11/19 07:18:56;;;;;;;12.32;9.90;;;4.30;99.90;;;;;;5042130;28;20022;-76
2021/11/19 07:21:23;;;;;;;19.88;10.48;;;4.20;99.90;;;;;;5041451;28;20079;-77
2021/11/19 07:23:50;;;;;;;18.52;11.05;;;4.20;99.90;;;;;;5038490;28;20029;-77
2021/11/19 07:26:16;;;;;;;21.27;11.15;;;4.20;99.90;;;;;;5038059;28;20026;-77
2021/11/19 07:28:43;;;;;;;13.75;10.48;;;4.40;99.90;;;;;;5037307;28;20385;-77
2021/11/19 07:31:10;;;;;;;18.67;12.25;;;4.30;99.90;;;;;;5038686;28;20040;-77
2021/11/19 07:33:37;;;;;;;16.40;10.52;;;4.30;99.90;;;;;;5038755;28;20030;-77
2021/11/19 07:36:06;;;;;;;12.75;10.32;;;4.40;99.90;;;;;;5039163;28;20033;-76
2021/11/19 07:38:32;;;;;;;18.10;12.65;;;4.40;99.90;;;;;;5039511;28;20455;-77
2021/11/19 07:40:58;;;;;;;19.50;10.73;;;4.40;99.90;;;;;;5039709;28;20026;-77
2021/11/19 07:43:27;;;;;;;13.43;10.05;;;4.50;99.90;;;;;;5038013;28;20029;-77
2021/11/19 07:45:54;;;;;;;17.02;10.27;;;4.60;99.90;;;;;;5039995;28;20109;-76
2021/11/19 07:48:26;;;;;;;17.30;11.10;;;4.50;99.90;;;;;;5041158;28;20315;-77
2021/11/19 07:50:54;;;;;;;13.77;10.38;;;4.60;99.90;;;;;;5038324;28;20079;-77
2021/11/19 07:53:21;;;;;;;19.35;10.52;;;4.60;99.90;;;;;;5037729;28;20044;-76
2021/11/19 07:55:49;;;;;;;16.08;10.65;;;4.90;99.90;;;;;;5038686;28;20026;-77
2021/11/19 07:58:16;;;;;;;25.20;9.88;;;5.20;99.90;;;;;;5038891;28;20013;-77
2021/11/19 08:00:44;;;;;;;12.57;10.18;;;5.30;99.90;;;;;;5038188;28;20053;-77
2021/11/19 08:03:13;;;;;;;15.20;10.50;;;5.40;99.90;;;;;;5040268;28;20026;-77
2021/11/19 08:05:39;;;;;;;22.75;11.55;;;5.40;99.90;;;;;;5038677;28;20018;-78
2021/11/19 08:08:05;;;;;;;17.02;10.35;;;5.30;99.90;;;;;;5037812;28;20018;-78
2021/11/19 08:10:32;;;;;;;13.70;10.20;;;5.20;99.90;;;;;;5039294;28;20032;-77
2021/11/19 08:12:57;;;;;;;16.17;11.45;;;5.30;99.90;;;;;;5040219;28;20414;-77
2021/11/19 08:15:26;;;;;;;15.60;11.27;;;5.40;99.90;;;;;;5040801;28;20025;-79
2021/11/19 08:17:53;;;;;;;23.33;11.73;;;5.50;99.90;;;;;;5040890;28;20031;-78
2021/11/19 08:20:28;;;;;;;16.40;9.95;;;5.60;99.90;;;;;;5039565;28;20025;-76
2021/11/19 08:22:55;;;;;;;15.40;9.65;;;5.60;99.90;;;;;;5040530;28;20108;-78
2021/11/19 08:25:21;;;;;;;13.40;10.55;;;5.70;99.90;;;;;;5038833;28;20033;-76
2021/11/19 08:27:50;;;;;;;16.80;10.23;;;5.70;99.90;;;;;;5039197;28;20029;-77
2021/11/19 08:30:20;;;;;;;16.75;11.05;;;5.70;99.90;;;;;;5037664;28;20018;-77
2021/11/19 08:32:46;;;;;;;13.52;10.70;;;5.60;99.90;;;;;;5037575;28;20089;-77
2021/11/19 08:35:12;;;;;;;15.38;10.57;;;5.60;99.90;;;;;;5035316;28;20111;-77
2021/11/19 08:37:38;;;;;;;19.02;11.75;;;5.80;99.90;;;;;;5036676;28;20035;-76
2021/11/19 08:40:06;;;;;;;19.80;10.98;;;5.90;99.90;;;;;;5035550;28;20025;-77
2021/11/19 08:42:32;;;;;;;15.25;11.98;;;5.90;99.90;;;;;;5037121;28;20080;-77
2021/11/19 08:44:58;;;;;;;15.73;11.50;;;6.00;99.90;;;;;;5042152;28;20025;-78
2021/11/19 08:47:24;;;;;;;18.40;12.23;;;6.10;99.90;;;;;;5037891;28;20009;-78
2021/11/19 08:49:50;;;;;;;13.05;11.65;;;6.00;99.90;;;;;;5055773;28;20053;-77
2021/11/19 08:52:19;;;;;;;17.60;12.45;;;6.00;99.90;;;;;;5053710;28;20025;-78
2021/11/19 08:54:45;;;;;;;14.52;11.40;;;6.10;99.90;;;;;;5053787;28;20021;-77
2021/11/19 08:57:14;;;;;;;15.35;11.38;;;6.20;99.90;;;;;;5049729;28;20052;-77
2021/11/19 08:59:42;;;;;;;15.95;11.35;;;6.10;99.90;;;;;;5048415;28;20366;-77
2021/11/19 09:02:11;;;;;;;16.73;10.38;;;5.90;99.90;;;;;;5048619;28;20076;-77
2021/11/19 09:04:37;;;;;;;15.73;11.77;;;5.90;99.90;;;;;;5044661;28;20036;-76
2021/11/19 09:07:03;;;;;;;14.23;11.52;;;6.20;99.90;;;;;;5041654;28;20097;-76
2021/11/19 09:09:30;;;;;;;15.73;12.35;;;6.30;99.90;;;;;;5038817;28;20056;-77
2021/11/19 09:11:56;;;;;;;16.40;11.38;;;6.40;99.90;;;;;;5036266;28;20060;-78
2021/11/19 09:14:23;;;;;;;17.27;11.07;;;6.40;99.90;;;;;;5038141;28;20475;-76
2021/11/19 09:17:08;;;;;;;19.40;10.63;;;6.50;99.90;;;;;;5039669;28;20021;-77
2021/11/19 09:20:08;;;;;;;22.00;11.20;;;6.70;99.90;;;;;;4989971;28;20045;-77
2021/11/19 09:22:53;;;;;;;21.45;11.90;;;6.80;99.90;;;;;;5029167;28;20091;-77
2021/11/19 09:25:21;;;;;;;17.85;10.85;;;6.90;99.90;;;;;;5040165;28;20022;-77
2021/11/19 09:27:47;;;;;;;20.25;11.45;;;6.80;99.90;;;;;;5041126;28;20018;-77
2021/11/19 09:30:22;;;;;;;26.38;12.95;;;6.80;99.90;;;;;;5051592;28;20056;-77
2021/11/19 09:32:52;;;;;;;18.08;11.63;;;6.90;99.90;;;;;;5054352;28;19997;-78
2021/11/19 09:35:22;;;;;;;17.23;11.15;;;6.80;99.90;;;;;;5054200;28;20021;-78
2021/11/19 09:37:50;;;;;;;18.58;12.38;;;6.60;99.90;;;;;;5051822;28;20029;-76
2021/11/19 09:40:17;;;;;;;18.95;12.30;;;6.30;99.90;;;;;;5047243;28;20032;-76
2021/11/19 09:42:55;;;;;;;17.48;11.57;;;6.30;99.90;;;;;;5034236;28;20256;-78
2021/11/19 09:45:43;;;;;;;17.50;12.27;;;6.20;99.90;;;;;;5034900;28;20464;-78
2021/11/19 09:48:40;;;;;;;13.38;9.82;;;6.30;99.90;;;;;;5034349;28;20029;-77
2021/11/19 09:51:32;;;;;;;19.65;10.70;;;6.40;99.90;;;;;;5034376;28;20444;-78
2021/11/19 09:54:20;;;;;;;16.65;11.50;;;6.70;99.90;;;;;;5034133;28;20108;-78
2021/11/19 09:57:39;;;;;;;12.90;11.60;;;6.70;99.90;;;;;;5035602;28;20029;-77
2021/11/19 10:00:23;;;;;;;14.52;11.70;;;6.80;99.90;;;;;;4940983;29;20032;-77
2021/11/19 10:03:10;;;;;;;12.70;10.68;;;6.90;99.90;;;;;;5034378;28;20021;-78
2021/11/19 10:05:38;;;;;;;19.85;12.05;;;6.80;99.90;;;;;;5034146;28;20053;-78
2021/11/19 10:08:42;;;;;;;17.05;12.07;;;7.10;99.90;;;;;;5034301;28;20075;-78
2021/11/19 10:11:11;;;;;;;15.60;11.70;;;7.10;99.90;;;;;;4997320;28;20041;-75
2021/11/19 10:14:06;;;;;;;14.45;10.13;;;7.30;99.90;;;;;;5033799;28;20116;-76
2021/11/19 10:16:44;;;;;;;23.05;11.85;;;7.60;99.90;;;;;;5033669;28;20497;-76
2021/11/19 10:19:25;;;;;;;15.27;10.90;;;7.60;99.90;;;;;;5033949;28;20338;-74
2021/11/19 10:22:09;;;;;;;17.85;11.82;;;7.50;99.90;;;;;;5034409;28;20113;-76
2021/11/19 10:24:50;;;;;;;23.10;12.77;;;7.40;99.90;;;;;;5036586;28;20051;-76
2021/11/19 10:27:21;;;;;;;16.58;12.38;;;7.40;99.90;;;;;;5038328;28;20022;-77
2021/11/19 10:29:52;;;;;;;17.77;13.50;;;7.40;99.90;;;;;;5038035;28;20033;-76
2021/11/19 10:32:21;;;;;;;17.52;12.98;;;7.50;99.90;;;;;;5039659;28;20021;-77
2021/11/19 10:34:52;;;;;;;17.02;12.32;;;7.50;99.90;;;;;;5037520;28;20030;-77
2021/11/19 10:37:36;;;;;;;23.58;13.90;;;7.40;99.90;;;;;;5038321;28;20026;-77
2021/11/19 10:40:20;;;;;;;16.60;13.13;;;7.50;99.90;;;;;;5036650;28;20121;-76
2021/11/19 10:42:48;;;;;;;17.50;12.35;;;7.50;99.90;;;;;;5040234;28;20057;-76
2021/11/19 10:45:42;;;;;;;19.70;13.88;;;7.50;99.90;;;;;;5037257;28;20071;-77
2021/11/19 10:48:11;;;;;;;23.70;13.93;;;7.30;99.90;;;;;;5037695;28;20057;-77
2021/11/19 10:50:45;;;;;;;17.92;13.63;;;7.40;99.90;;;;;;5035069;28;20032;-78
2021/11/19 10:53:38;;;;;;;20.30;13.77;;;7.50;99.90;;;;;;5035630;28;20030;-76
2021/11/19 10:56:19;;;;;;;24.25;14.35;;;7.60;99.90;;;;;;5037991;28;20041;-76
2021/11/19 10:59:11;;;;;;;27.10;13.82;;;7.80;99.90;;;;;;5038037;28;20080;-78
2021/11/19 11:02:02;;;;;;;21.85;14.00;;;7.90;99.90;;;;;;5038890;28;20383;-75
2021/11/19 11:04:40;;;;;;;23.98;14.32;;;8.00;99.90;;;;;;5041397;28;20116;-77
2021/11/19 11:07:34;;;;;;;20.15;14.25;;;8.20;99.90;;;;;;5038422;28;20064;-76
2021/11/19 11:10:00;;;;;;;20.92;13.85;;;8.20;99.90;;;;;;5035068;28;20052;-76
2021/11/19 11:12:46;;;;;;;24.15;14.73;;;8.10;99.90;;;;;;5038754;28;20025;-76
2021/11/19 11:15:21;;;;;;;20.58;16.33;;;8.20;99.90;;;;;;5038876;28;20126;-74
2021/11/19 11:18:11;;;;;;;22.98;14.60;;;8.20;99.90;;;;;;5040433;28;20026;-77
2021/11/19 11:20:40;;;;;;;22.08;14.10;;;8.40;99.90;;;;;;5041087;28;20056;-76
2021/11/19 11:23:24;;;;;;;22.13;14.52;;;8.10;99.90;;;;;;5041663;28;20048;-75
2021/11/19 11:26:15;;;;;;;22.58;14.20;;;7.80;99.90;;;;;;5043278;28;20036;-76
2021/11/19 11:28:52;;;;;;;17.38;12.77;;;7.60;99.90;;;;;;5029142;28;20041;-75
2021/11/19 11:31:50;;;;;;;20.88;12.10;;;7.40;99.90;;;;;;5042903;28;20029;-75
2021/11/19 11:34:26;;;;;;;12.80;10.35;;;7.40;99.90;;;;;;5041240;28;20022;-76
2021/11/19 11:37:16;;;;;;;16.60;10.82;;;7.20;99.90;;;;;;5044203;28;20052;-78
2021/11/19 11:40:01;;;;;;;15.95;11.00;;;7.20;99.90;;;;;;5045765;28;20044;-77
2021/11/19 11:42:35;;;;;;;12.85;10.93;;;7.20;99.90;;;;;;5044666;28;20049;-77
2021/11/19 11:45:23;;;;;;;16.55;11.13;;;7.30;99.90;;;;;;5043078;28;20079;-77
2021/11/19 11:47:51;;;;;;;14.65;11.95;;;7.50;99.90;;;;;;5049741;28;20025;-76
2021/11/19 11:50:34;;;;;;;24.15;12.23;;;7.60;99.90;;;;;;5049745;28;20077;-76
2021/11/19 11:53:24;;;;;;;18.73;12.32;;;7.40;99.90;;;;;;5055881;28;20025;-78
2021/11/19 11:56:07;;;;;;;14.77;11.70;;;7.20;99.90;;;;;;5055094;28;20025;-78
2021/11/19 11:59:00;;;;;;;17.27;12.82;;;7.00;99.90;;;;;;5050549;28;20037;-78
2021/11/19 12:01:56;;;;;;;19.60;12.60;;;7.10;99.90;;;;;;5042616;28;20028;-77
2021/11/19 12:04:59;;;;;;;21.55;12.63;;;7.00;99.90;;;;;;5041372;28;20053;-79
2021/11/19 12:07:50;;;;;;;20.75;12.32;;;6.90;99.90;;;;;;5041208;28;20022;-78
2021/11/19 12:10:52;;;;;;;18.55;12.90;;;6.90;99.90;;;;;;5041814;28;20037;-78
2021/11/19 12:13:40;;;;;;;17.92;12.15;;;6.90;99.90;;;;;;5042736;28;20504;-76
2021/11/19 12:16:46;;;;;;;17.95;12.75;;;6.90;99.90;;;;;;5044562;28;20021;-78
2021/11/19 12:19:16;;;;;;;17.33;11.82;;;7.30;99.90;;;;;;5036308;28;20018;-77
2021/11/19 12:22:00;;;;;;;15.65;11.30;;;7.30;99.90;;;;;;5038619;28;20029;-77
2021/11/19 12:24:38;;;;;;;16.50;11.40;;;7.60;99.90;;;;;;5041863;28;20033;-78
2021/11/19 12:27:43;;;;;;;16.83;10.88;;;7.70;99.90;;;;;;5041707;28;20048;-76
2021/11/19 12:30:47;;;;;;;15.30;10.73;;;7.70;99.90;;;;;;5042564;28;20098;-77
2021/11/19 12:33:24;;;;;;;17.73;11.55;;;7.70;99.90;;;;;;4957448;28;20527;-77
2021/11/19 12:35:58;;;;;;;20.70;12.23;;;8.10;99.90;;;;;;5039298;28;20469;-77
2021/11/19 12:38:30;;;;;;;16.02;9.70;;;8.10;99.90;;;;;;5037541;28;20495;-77
2021/11/19 12:41:11;;;;;;;15.75;12.38;;;7.80;99.90;;;;;;5038001;28;20055;-77
2021/11/19 12:43:50;;;;;;;14.88;10.38;;;7.80;99.90;;;;;;5038252;28;20029;-79
2021/11/19 12:46:25;;;;;;;22.02;12.05;;;7.80;99.90;;;;;;5038830;28;20032;-77
2021/11/19 12:49:20;;;;;;;18.42;10.75;;;7.80;99.90;;;;;;5035231;28;20083;-77
2021/11/19 12:52:08;;;;;;;16.17;11.32;;;7.80;99.90;;;;;;5037588;28;20532;-77
2021/11/19 12:55:07;;;;;;;18.80;11.88;;;7.90;99.90;;;;;;5038267;28;20040;-77
2021/11/19 12:57:43;;;;;;;17.35;11.27;;;7.80;99.90;;;;;;5039492;28;20100;-77
2021/11/19 13:00:15;;;;;;;17.73;10.60;;;7.80;99.90;;;;;;5035960;28;20036;-78
2021/11/19 13:02:45;;;;;;;18.30;10.88;;;7.90;99.90;;;;;;5038446;28;20075;-77
2021/11/19 13:05:24;;;;;;;18.05;9.82;;;8.00;99.90;;;;;;5036329;28;20075;-78